createdAt,value
2019-01-21T00:00:34.298Z,93.50
2019-01-21T00:03:05.277Z,93.20
2019-01-21T00:05:32.758Z,93.20
2019-01-21T00:08:00.467Z,93.20
2019-01-21T00:10:28.163Z,93.10
2019-01-21T00:12:55.645Z,93.00
2019-01-21T00:15:23.279Z,93.00
2019-01-21T00:17:50.902Z,93.00
2019-01-21T00:20:18.412Z,93.00
2019-01-21T00:22:46.051Z,93.30
2019-01-21T00:25:13.786Z,93.00
2019-01-21T00:27:41.425Z,93.10
2019-01-21T00:30:09.274Z,93.00
2019-01-21T00:32:36.735Z,93.00
2019-01-21T00:35:05.007Z,93.00
2019-01-21T00:37:33.427Z,93.00
2019-01-21T00:40:01.831Z,93.10
2019-01-21T00:42:29.535Z,93.40
2019-01-21T00:44:57.435Z,93.30
2019-01-21T00:47:29.740Z,93.20
2019-01-21T00:49:54.809Z,93.10
2019-01-21T00:52:22.457Z,93.20
2019-01-21T00:54:51.127Z,93.20
2019-01-21T00:57:18.805Z,93.20
2019-01-21T00:59:46.690Z,93.20
2019-01-21T01:02:14.468Z,93.30
2019-01-21T01:04:42.158Z,93.30
2019-01-21T01:07:10.169Z,93.40
2019-01-21T01:09:37.758Z,93.40
2019-01-21T01:12:05.438Z,93.50
2019-01-21T01:14:33.221Z,93.50
2019-01-21T01:17:00.820Z,93.50
2019-01-21T01:19:28.427Z,93.50
2019-01-21T01:22:15.970Z,93.60
2019-01-21T01:24:43.760Z,93.50
2019-01-21T01:27:11.334Z,93.40
2019-01-21T01:29:39.980Z,93.30
2019-01-21T01:32:08.376Z,93.20
2019-01-21T01:34:36.086Z,93.00
2019-01-21T01:37:05.334Z,92.90
2019-01-21T01:39:32.942Z,93.00
2019-01-21T01:42:00.644Z,93.00
2019-01-21T01:44:28.956Z,93.00
2019-01-21T01:46:56.784Z,93.00
2019-01-21T01:49:24.818Z,93.00
2019-01-21T01:51:52.409Z,93.00
2019-01-21T01:54:19.994Z,92.90
2019-01-21T01:56:48.523Z,92.90
2019-01-21T01:59:16.254Z,92.90
2019-01-21T02:01:43.876Z,93.00
2019-01-21T02:04:11.490Z,93.10
2019-01-21T02:06:39.152Z,93.20
2019-01-21T02:09:07.595Z,93.30
2019-01-21T02:11:51.459Z,93.40
2019-01-21T02:14:19.078Z,93.40
2019-01-21T02:16:46.741Z,93.40
2019-01-21T02:19:14.821Z,93.40
2019-01-21T02:21:43.230Z,93.30
2019-01-21T02:24:15.284Z,93.40
2019-01-21T02:27:03.650Z,93.30
2019-01-21T02:30:12.944Z,93.30
2019-01-21T02:33:43.609Z,93.20
2019-01-21T02:36:39.740Z,93.10
2019-01-21T02:39:46.118Z,93.00
2019-01-21T02:42:48.956Z,93.00
2019-01-21T02:46:10.927Z,93.00
2019-01-21T02:48:57.334Z,93.00
2019-01-21T02:51:58.631Z,93.00
2019-01-21T02:55:12.140Z,93.00
2019-01-21T02:58:28.388Z,93.30
2019-01-21T03:01:53.704Z,93.00
2019-01-21T03:05:31.364Z,93.10
2019-01-21T03:08:42.626Z,93.00
2019-01-21T03:11:59.565Z,93.00
2019-01-21T03:15:29.410Z,92.90
2019-01-21T03:18:52.941Z,92.90
2019-01-21T03:22:22.382Z,92.80
2019-01-21T03:25:27.549Z,92.70
2019-01-21T03:29:01.347Z,92.80
2019-01-21T03:32:35.029Z,92.80
2019-01-21T03:35:59.128Z,92.80
2019-01-21T03:39:09.405Z,93.00
2019-01-21T03:42:10.432Z,93.10
2019-01-21T03:45:48.527Z,93.00
2019-01-21T03:48:30.643Z,93.00
2019-01-21T03:51:55.767Z,92.90
2019-01-21T03:54:46.122Z,93.00
2019-01-21T03:57:36.227Z,93.20
2019-01-21T04:00:33.502Z,93.40
2019-01-21T04:03:46.580Z,93.60
2019-01-21T04:07:03.778Z,93.70
2019-01-21T04:09:57.627Z,93.70
2019-01-21T04:13:14.950Z,93.80
2019-01-21T04:16:16.097Z,93.70
2019-01-21T04:19:32.773Z,93.60
2019-01-21T04:22:41.011Z,93.60
2019-01-21T04:30:18.985Z,93.50
2019-01-21T04:33:53.152Z,93.40
2019-01-21T04:37:13.557Z,93.50
2019-01-21T04:40:48.969Z,93.50
2019-01-21T04:44:12.669Z,93.30
2019-01-21T04:47:15.643Z,93.30
2019-01-21T04:50:25.135Z,93.30
2019-01-21T04:53:36.508Z,93.20
2019-01-21T04:56:52.110Z,93.10
2019-01-21T05:00:26.158Z,93.00
2019-01-21T05:04:06.422Z,93.30
2019-01-21T05:07:24.193Z,93.20
2019-01-21T05:10:29.638Z,93.20
2019-01-21T05:13:33.312Z,93.10
2019-01-21T05:16:54.110Z,93.00
2019-01-21T05:20:25.089Z,92.90
2019-01-21T05:23:35.867Z,92.80
2019-01-21T05:26:50.137Z,92.70
2019-01-21T05:30:20.475Z,92.60
2019-01-21T05:33:25.951Z,92.60
2019-01-21T05:36:25.240Z,92.50
2019-01-21T05:39:37.854Z,92.30
2019-01-21T05:42:50.712Z,92.30
2019-01-21T05:46:00.046Z,92.30
2019-01-21T05:49:28.336Z,92.30
2019-01-21T05:53:18.387Z,92.20
2019-01-21T05:56:57.096Z,91.90
2019-01-21T06:00:13.523Z,91.90
2019-01-21T06:03:24.944Z,92.00
2019-01-21T06:06:23.148Z,92.00
2019-01-21T06:09:58.615Z,92.00
2019-01-21T06:13:51.868Z,92.00
2019-01-21T06:17:01.658Z,91.80
2019-01-21T06:20:29.188Z,92.10
2019-01-21T06:24:00.084Z,92.00
2019-01-21T06:27:15.712Z,92.00
2019-01-21T06:30:00.306Z,91.90
2019-01-21T06:33:07.475Z,91.90
2019-01-21T06:36:12.960Z,91.70
2019-01-21T06:39:17.214Z,91.60
2019-01-21T06:42:34.949Z,91.70
2019-01-21T06:46:02.621Z,91.80
2019-01-21T06:49:38.578Z,92.00
2019-01-21T06:53:10.918Z,91.80
2019-01-21T06:55:56.237Z,91.90
2019-01-21T06:59:29.473Z,92.00
2019-01-21T07:02:43.963Z,92.00
2019-01-21T07:05:37.345Z,91.90
2019-01-21T07:09:04.890Z,92.00
2019-01-21T07:12:13.325Z,91.90
2019-01-21T07:15:34.475Z,92.00
2019-01-21T07:18:57.024Z,91.70
2019-01-21T07:22:34.035Z,91.80
2019-01-21T07:26:00.232Z,91.60
2019-01-21T07:29:28.898Z,91.70
2019-01-21T07:32:38.649Z,91.90
2019-01-21T07:36:07.729Z,92.00
2019-01-21T07:39:11.954Z,92.20
2019-01-21T07:42:35.588Z,92.30
2019-01-21T07:46:12.299Z,92.50
2019-01-21T07:50:06.716Z,92.50
2019-01-21T07:53:26.605Z,92.60
2019-01-21T07:56:33.731Z,92.80
2019-01-21T07:59:37.537Z,92.70
2019-01-21T08:02:43.751Z,92.70
2019-01-21T08:05:59.435Z,92.60
2019-01-21T08:09:05.142Z,92.40
2019-01-21T08:12:26.062Z,92.40
2019-01-21T08:15:10.712Z,92.30
2019-01-21T08:18:31.395Z,92.60
2019-01-21T08:22:07.297Z,92.50
2019-01-21T08:25:33.586Z,92.60
2019-01-21T08:28:35.254Z,92.40
2019-01-21T08:31:39.973Z,92.50
2019-01-21T08:35:15.841Z,92.60
2019-01-21T08:38:26.361Z,92.60
2019-01-21T08:41:47.272Z,92.90
2019-01-21T08:44:43.531Z,92.70
2019-01-21T08:48:16.551Z,92.30
2019-01-21T08:51:06.923Z,92.20
2019-01-21T08:54:16.727Z,92.20
2019-01-21T08:57:47.297Z,92.20
2019-01-21T09:00:48.751Z,92.00
2019-01-21T09:04:02.580Z,91.90
2019-01-21T09:07:08.740Z,92.00
2019-01-21T09:10:08.373Z,91.90
2019-01-21T09:13:40.700Z,91.80
2019-01-21T09:16:51.181Z,91.90
2019-01-21T09:20:21.288Z,91.70
2019-01-21T09:24:11.379Z,91.60
2019-01-21T09:27:28.568Z,91.50
2019-01-21T09:30:59.465Z,91.30
2019-01-21T09:34:15.491Z,91.70
2019-01-21T09:37:37.095Z,91.50
2019-01-21T09:40:35.750Z,91.40
2019-01-21T09:43:28.892Z,91.50
2019-01-21T09:46:49.000Z,91.50
2019-01-21T09:49:15.450Z,91.40
2019-01-21T09:51:55.586Z,91.10
2019-01-21T09:54:24.802Z,91.00
2019-01-21T09:56:55.748Z,91.00
2019-01-21T09:59:24.241Z,91.00
2019-01-21T10:01:56.360Z,90.90
2019-01-21T10:04:38.000Z,90.90
2019-01-21T10:07:28.080Z,90.80
2019-01-21T10:10:06.374Z,90.90
2019-01-21T10:13:47.726Z,90.90
2019-01-21T10:16:52.954Z,91.10
2019-01-21T10:20:12.761Z,90.90
2019-01-21T10:24:12.001Z,90.80
2019-01-21T10:27:39.314Z,90.80
2019-01-21T10:30:25.448Z,90.80
2019-01-21T10:33:49.310Z,90.60
2019-01-21T10:36:58.672Z,90.50
2019-01-21T10:40:33.828Z,90.70
2019-01-21T10:43:38.997Z,90.60
2019-01-21T10:46:51.231Z,90.50
2019-01-21T10:49:57.524Z,90.50
2019-01-21T10:53:19.314Z,90.40
2019-01-21T10:56:39.067Z,90.30
2019-01-21T11:00:05.077Z,90.30
2019-01-21T11:03:00.088Z,90.30
2019-01-21T11:05:56.108Z,90.00
2019-01-21T11:09:16.018Z,89.80
2019-01-21T11:12:47.848Z,90.00
2019-01-21T11:15:48.243Z,89.60
2019-01-21T11:19:27.466Z,89.30
2019-01-21T11:22:10.489Z,89.40
2019-01-21T11:26:12.946Z,89.10
2019-01-21T11:30:04.554Z,89.20
2019-01-21T11:33:43.999Z,89.20
2019-01-21T11:37:06.065Z,88.60
2019-01-21T11:40:42.952Z,88.70
2019-01-21T11:44:17.102Z,88.50
2019-01-21T11:47:49.911Z,88.40
2019-01-21T11:51:02.958Z,88.20
2019-01-21T11:53:48.215Z,88.00
2019-01-21T11:57:03.627Z,88.20
2019-01-21T12:00:06.697Z,88.10
2019-01-21T12:03:23.647Z,88.00
2019-01-21T12:06:00.935Z,88.20
2019-01-21T12:09:16.488Z,88.20
2019-01-21T12:13:12.788Z,87.90
2019-01-21T12:16:32.769Z,87.70
2019-01-21T12:19:46.028Z,87.50
2019-01-21T12:23:20.958Z,87.30
2019-01-21T12:26:21.885Z,86.90
2019-01-21T12:29:39.384Z,87.70
2019-01-21T12:33:11.018Z,87.00
2019-01-21T12:36:08.340Z,86.80
2019-01-21T12:39:34.583Z,86.80
2019-01-21T12:42:53.508Z,86.80
2019-01-21T12:46:21.182Z,87.10
2019-01-21T12:49:56.319Z,87.10
2019-01-21T12:53:02.457Z,87.30
2019-01-21T12:56:16.145Z,87.00
2019-01-21T12:59:35.455Z,86.50
2019-01-21T13:02:47.205Z,87.10
2019-01-21T13:05:32.573Z,87.10
2019-01-21T13:08:43.095Z,87.50
2019-01-21T13:11:40.484Z,87.70
2019-01-21T13:14:30.250Z,87.80
2019-01-21T13:17:34.241Z,87.50
2019-01-21T13:20:31.893Z,87.40
2019-01-21T13:23:46.984Z,88.50
2019-01-21T13:26:33.097Z,88.20
2019-01-21T13:29:46.444Z,87.90
2019-01-21T13:32:51.140Z,87.90
2019-01-21T13:35:57.456Z,88.30
2019-01-21T13:39:09.535Z,89.10
2019-01-21T13:41:58.609Z,88.60
2019-01-21T13:44:58.186Z,88.80
2019-01-21T13:48:04.382Z,90.30
2019-01-21T13:51:08.700Z,90.00
2019-01-21T13:54:15.595Z,89.40
2019-01-21T13:57:32.169Z,89.10
2019-01-21T14:00:21.558Z,88.90
2019-01-21T14:03:11.875Z,90.70
2019-01-21T14:06:40.384Z,90.20
2019-01-21T14:10:07.281Z,90.20
2019-01-21T14:13:17.840Z,90.10
2019-01-21T14:16:17.458Z,90.30
2019-01-21T14:19:25.219Z,90.20
2019-01-21T14:22:39.605Z,90.10
2019-01-21T14:26:04.718Z,90.20
2019-01-21T14:29:10.755Z,90.10
2019-01-21T14:32:36.430Z,90.20
2019-01-21T14:36:00.567Z,90.30
2019-01-21T14:39:20.638Z,90.50
2019-01-21T14:42:49.842Z,90.30
2019-01-21T14:45:54.132Z,90.50
2019-01-21T14:49:31.475Z,91.10
2019-01-21T14:52:48.726Z,90.70
2019-01-21T14:55:46.412Z,91.10
2019-01-21T14:58:36.652Z,90.80
2019-01-21T15:01:21.597Z,91.00
2019-01-21T15:04:47.830Z,90.90
2019-01-21T15:07:41.673Z,91.20
2019-01-21T15:10:50.781Z,91.20
2019-01-21T15:13:46.421Z,91.40
2019-01-21T15:21:12.172Z,91.20
2019-01-21T15:24:41.378Z,91.30
2019-01-21T15:27:44.481Z,91.50
2019-01-21T15:31:06.405Z,91.30
2019-01-21T15:34:28.763Z,91.40
2019-01-21T15:38:19.494Z,91.30
2019-01-21T15:41:14.331Z,91.30
2019-01-21T15:44:40.399Z,91.40
2019-01-21T15:47:56.960Z,91.30
2019-01-21T15:51:05.951Z,91.30
2019-01-21T15:54:25.974Z,91.30
2019-01-21T15:57:20.827Z,91.40
2019-01-21T16:00:52.169Z,91.50
2019-01-21T16:04:02.067Z,91.70
2019-01-21T16:07:03.639Z,91.60
2019-01-21T16:10:19.362Z,91.40
2019-01-21T16:12:56.517Z,91.30
2019-01-21T16:16:24.375Z,91.40
2019-01-21T16:19:15.256Z,91.40
2019-01-21T16:22:51.737Z,91.30
2019-01-21T16:25:55.446Z,91.40
2019-01-21T16:29:12.150Z,91.50
2019-01-21T16:32:25.619Z,91.40
2019-01-21T16:36:03.108Z,91.50
2019-01-21T16:38:51.940Z,91.50
2019-01-21T16:41:51.078Z,91.50
2019-01-21T16:44:18.809Z,91.60
2019-01-21T16:46:46.318Z,91.50
2019-01-21T16:49:13.986Z,91.70
2019-01-21T16:51:41.621Z,91.70
2019-01-21T16:54:09.271Z,91.90
2019-01-21T16:56:36.946Z,91.80
2019-01-21T16:59:04.731Z,91.80
2019-01-21T17:01:32.091Z,91.70
2019-01-21T17:03:59.794Z,91.70
2019-01-21T17:06:27.206Z,91.80
2019-01-21T17:08:54.606Z,91.80
2019-01-21T17:11:22.261Z,91.90
2019-01-21T17:18:26.395Z,91.80
2019-01-21T17:20:54.008Z,91.90
2019-01-21T17:23:21.885Z,91.80
2019-01-21T17:25:50.696Z,91.70
2019-01-21T17:28:18.300Z,92.10
2019-01-21T17:30:45.666Z,92.00
2019-01-21T17:33:13.157Z,92.00
2019-01-21T17:35:40.628Z,92.00
2019-01-21T17:38:07.984Z,92.10
2019-01-21T17:40:35.467Z,92.00
2019-01-21T17:43:03.219Z,92.10
2019-01-21T17:45:30.708Z,92.00
2019-01-21T17:47:58.179Z,92.00
2019-01-21T17:50:25.536Z,92.00
2019-01-21T17:52:52.968Z,92.10
2019-01-21T17:55:20.612Z,92.20
2019-01-21T17:57:48.278Z,92.10
2019-01-21T18:00:20.485Z,92.00
2019-01-21T18:02:48.324Z,92.00
2019-01-21T18:05:16.510Z,92.10
2019-01-21T18:07:44.267Z,92.10
2019-01-21T18:10:13.801Z,92.00
2019-01-21T18:12:42.545Z,92.10
2019-01-21T18:15:11.479Z,92.00
2019-01-21T18:17:39.456Z,92.00
2019-01-21T18:20:15.841Z,92.00
2019-01-21T18:22:43.980Z,91.90
2019-01-21T18:25:12.247Z,91.90
2019-01-21T18:27:42.019Z,91.90
2019-01-21T18:30:15.897Z,91.80
2019-01-21T18:35:25.970Z,91.80
2019-01-21T18:37:55.341Z,92.10
2019-01-21T18:40:24.423Z,92.00
2019-01-21T18:42:53.884Z,92.00
2019-01-21T18:45:27.272Z,92.30
2019-01-21T18:47:55.418Z,92.20
2019-01-21T18:50:24.854Z,92.80
2019-01-21T18:52:52.867Z,92.40
2019-01-21T18:55:20.763Z,92.30
2019-01-21T18:57:55.718Z,92.20
2019-01-21T19:00:22.336Z,92.40
2019-01-21T19:02:50.214Z,92.70
2019-01-21T19:05:18.712Z,92.70
2019-01-21T19:07:47.044Z,92.90
2019-01-21T19:10:17.141Z,92.80
2019-01-21T19:12:44.922Z,93.00
2019-01-21T19:15:22.812Z,93.10
2019-01-21T19:17:50.640Z,93.00
2019-01-21T19:20:19.772Z,93.10
2019-01-21T19:22:48.249Z,92.80
2019-01-21T19:25:16.038Z,93.00
2019-01-21T19:27:44.266Z,92.90
2019-01-21T19:30:16.295Z,92.90
2019-01-21T19:32:44.268Z,92.80
2019-01-21T19:35:14.853Z,92.70
2019-01-21T19:37:43.433Z,92.70
2019-01-21T19:40:15.537Z,92.70
2019-01-21T19:42:43.770Z,92.70
2019-01-21T19:45:12.249Z,92.70
2019-01-21T19:47:40.075Z,92.70
2019-01-21T19:50:09.185Z,92.60
2019-01-21T19:52:36.991Z,92.60
2019-01-21T19:55:09.793Z,92.50
2019-01-21T19:57:38.253Z,92.50
2019-01-21T20:00:11.750Z,92.50
2019-01-21T20:02:39.537Z,92.50
2019-01-21T20:05:09.050Z,92.40
2019-01-21T20:07:37.395Z,92.30
2019-01-21T20:10:07.513Z,92.20
2019-01-21T20:12:35.446Z,92.60
2019-01-21T20:15:05.909Z,92.70
2019-01-21T20:17:33.804Z,93.00
2019-01-21T20:20:02.385Z,92.60
2019-01-21T20:22:30.571Z,92.40
2019-01-21T20:24:59.119Z,92.30
2019-01-21T20:27:27.100Z,92.30
2019-01-21T20:29:54.990Z,92.30
2019-01-21T20:32:23.269Z,92.30
2019-01-21T20:34:59.193Z,92.20
2019-01-21T20:37:27.377Z,92.20
2019-01-21T20:39:55.677Z,92.20
2019-01-21T20:42:24.245Z,92.70
2019-01-21T20:44:51.690Z,93.10
2019-01-21T20:47:19.125Z,92.80
2019-01-21T20:49:46.679Z,92.80
2019-01-21T20:52:15.634Z,94.30
2019-01-21T20:54:43.937Z,93.40
2019-01-21T20:57:11.687Z,93.10
2019-01-21T20:59:39.384Z,93.00
2019-01-21T21:02:07.255Z,93.10
2019-01-21T21:04:35.201Z,93.90
2019-01-21T21:07:03.459Z,93.10
2019-01-21T21:09:31.906Z,92.90
2019-01-21T21:12:00.879Z,92.90
2019-01-21T21:14:30.100Z,93.30
2019-01-21T21:16:58.211Z,92.90
2019-01-21T21:19:26.804Z,92.90
2019-01-21T21:21:54.923Z,92.80
2019-01-21T21:24:23.220Z,93.30
2019-01-21T21:26:51.598Z,92.90
2019-01-21T21:29:19.846Z,92.80
2019-01-21T21:31:48.611Z,92.70
2019-01-21T21:34:17.070Z,92.80
2019-01-21T21:36:45.328Z,92.90
2019-01-21T21:39:13.621Z,92.80
2019-01-21T21:41:42.221Z,93.60
2019-01-21T21:44:11.755Z,93.50
2019-01-21T21:46:40.765Z,93.60
2019-01-21T21:49:08.885Z,93.50
2019-01-21T21:51:37.326Z,93.20
2019-01-21T21:54:05.480Z,93.00
2019-01-21T21:56:33.648Z,92.80
2019-01-21T21:59:01.815Z,92.80
2019-01-21T22:01:30.206Z,92.70
2019-01-21T22:03:58.512Z,92.60
2019-01-21T22:06:26.583Z,92.60
2019-01-21T22:08:54.923Z,92.70
2019-01-21T22:11:23.327Z,92.40
2019-01-21T22:13:51.515Z,92.60
2019-01-21T22:16:19.679Z,92.50
2019-01-21T22:18:47.856Z,92.50
2019-01-21T22:21:16.056Z,92.50
2019-01-21T22:23:44.127Z,92.60
2019-01-21T22:26:12.029Z,92.50
2019-01-21T22:28:40.165Z,92.40
2019-01-21T22:31:07.928Z,92.40
2019-01-21T22:33:35.619Z,92.40
2019-01-21T22:36:03.218Z,92.40
2019-01-21T22:38:31.970Z,92.30
2019-01-21T22:40:59.588Z,92.40
2019-01-21T22:43:27.473Z,92.40
2019-01-21T22:45:55.156Z,92.40
2019-01-21T22:48:22.824Z,92.80
2019-01-21T22:50:50.901Z,92.40
2019-01-21T22:53:18.592Z,92.40
2019-01-21T22:55:46.225Z,92.50
2019-01-21T22:58:13.818Z,92.30
2019-01-21T23:00:58.039Z,92.40
2019-01-21T23:03:27.903Z,92.40
2019-01-21T23:05:55.804Z,92.30
2019-01-21T23:08:23.510Z,92.30
2019-01-21T23:10:51.034Z,92.20
2019-01-21T23:13:18.833Z,92.30
2019-01-21T23:15:48.783Z,92.30
2019-01-21T23:18:16.764Z,92.20
2019-01-21T23:20:44.245Z,92.20
2019-01-21T23:23:11.863Z,92.10
2019-01-21T23:25:39.664Z,92.50
2019-01-21T23:28:07.166Z,93.00
2019-01-21T23:30:35.630Z,92.60
2019-01-21T23:33:04.623Z,93.50
2019-01-21T23:35:32.250Z,92.90
2019-01-21T23:37:59.936Z,93.40
2019-01-21T23:40:27.774Z,93.10
2019-01-21T23:42:55.398Z,93.50
2019-01-21T23:45:23.100Z,93.00
2019-01-21T23:47:50.883Z,93.30
2019-01-21T23:50:18.321Z,93.20
2019-01-21T23:52:45.786Z,93.50
2019-01-21T23:55:13.514Z,93.30
2019-01-21T23:57:41.317Z,93.80
